createdAt,value
2018-05-16T00:02:26.271Z,14.20
2018-05-16T00:04:53.572Z,14.20
2018-05-16T00:07:21.281Z,14.20
2018-05-16T00:09:49.493Z,14.20
2018-05-16T00:12:17.731Z,14.20
2018-05-16T00:14:45.892Z,14.30
2018-05-16T00:17:13.331Z,14.20
2018-05-16T00:19:40.606Z,14.30
2018-05-16T00:22:08.392Z,14.40
2018-05-16T00:24:35.840Z,14.40
2018-05-16T00:27:03.655Z,14.30
2018-05-16T00:29:32.901Z,14.30
2018-05-16T00:32:01.282Z,14.30
2018-05-16T00:34:31.440Z,14.30
2018-05-16T00:36:59.011Z,14.20
2018-05-16T00:39:28.213Z,14.20
2018-05-16T00:41:55.980Z,14.20
2018-05-16T00:44:23.230Z,14.20
2018-05-16T00:46:52.100Z,14.10
2018-05-16T00:49:21.222Z,14.10
2018-05-16T00:51:48.632Z,14.10
2018-05-16T00:54:16.162Z,14.10
2018-05-16T00:56:44.452Z,14.10
2018-05-16T00:59:11.850Z,14.00
2018-05-16T01:01:39.811Z,13.90
2018-05-16T01:04:07.182Z,14.00
2018-05-16T01:06:34.584Z,13.90
2018-05-16T01:09:02.081Z,14.00
2018-05-16T01:11:30.412Z,14.00
2018-05-16T01:13:57.751Z,14.00
2018-05-16T01:16:26.371Z,14.00
2018-05-16T01:18:53.891Z,13.90
2018-05-16T01:21:21.171Z,14.00
2018-05-16T01:23:49.621Z,14.00
2018-05-16T01:26:17.880Z,14.00
2018-05-16T01:28:45.171Z,14.00
2018-05-16T01:31:14.151Z,14.00
2018-05-16T01:33:42.211Z,14.10
2018-05-16T01:36:11.441Z,14.00
2018-05-16T01:38:39.200Z,14.00
2018-05-16T01:41:07.172Z,14.00
2018-05-16T01:43:34.611Z,14.00
2018-05-16T01:46:01.821Z,14.00
2018-05-16T01:48:30.372Z,13.90
2018-05-16T01:50:57.831Z,13.90
2018-05-16T01:53:25.121Z,13.90
2018-05-16T01:55:52.501Z,14.00
2018-05-16T01:58:20.521Z,14.00
2018-05-16T02:00:47.911Z,14.00
2018-05-16T02:03:16.153Z,14.00
2018-05-16T02:05:43.653Z,14.00
2018-05-16T02:08:11.380Z,14.00
2018-05-16T02:10:38.991Z,14.00
2018-05-16T02:13:06.571Z,14.00
2018-05-16T02:15:34.132Z,13.90
2018-05-16T02:18:01.902Z,13.90
2018-05-16T02:20:29.400Z,13.90
2018-05-16T02:22:56.993Z,13.90
2018-05-16T02:25:24.331Z,13.90
2018-05-16T02:27:51.731Z,13.90
2018-05-16T02:30:19.234Z,13.90
2018-05-16T02:32:47.340Z,13.90
2018-05-16T02:35:14.752Z,13.90
2018-05-16T02:37:41.889Z,13.80
2018-05-16T02:40:09.270Z,13.80
2018-05-16T02:42:36.781Z,13.80
2018-05-16T02:45:04.230Z,13.70
2018-05-16T02:47:31.721Z,13.70
2018-05-16T02:49:59.111Z,13.70
2018-05-16T02:52:26.551Z,13.70
2018-05-16T02:54:53.991Z,13.70
2018-05-16T02:57:21.511Z,13.70
2018-05-16T02:59:49.431Z,13.80
2018-05-16T03:02:17.600Z,13.70
2018-05-16T03:04:45.071Z,13.70
2018-05-16T03:07:12.591Z,13.70
2018-05-16T03:09:40.060Z,13.70
2018-05-16T03:12:07.472Z,13.70
2018-05-16T03:14:35.012Z,13.80
2018-05-16T03:17:03.915Z,13.80
2018-05-16T03:19:31.712Z,13.80
2018-05-16T03:22:00.040Z,13.80
2018-05-16T03:24:27.570Z,13.80
2018-05-16T03:26:58.720Z,13.90
2018-05-16T03:29:27.170Z,13.90
2018-05-16T03:31:56.212Z,14.00
2018-05-16T03:34:23.582Z,14.00
2018-05-16T03:36:51.270Z,13.90
2018-05-16T03:39:18.812Z,14.00
2018-05-16T03:41:46.411Z,14.00
2018-05-16T03:44:14.310Z,13.90
2018-05-16T03:46:44.081Z,14.10
2018-05-16T03:49:11.581Z,14.10
2018-05-16T03:51:40.300Z,14.10
2018-05-16T03:54:09.262Z,14.10
2018-05-16T03:56:36.820Z,14.00
2018-05-16T03:59:23.230Z,14.00
2018-05-16T04:02:08.580Z,14.10
2018-05-16T04:04:35.881Z,14.20
2018-05-16T04:07:03.470Z,14.20
2018-05-16T04:09:30.841Z,14.10
2018-05-16T04:11:59.930Z,14.20
2018-05-16T04:14:28.980Z,14.20
2018-05-16T04:16:56.270Z,14.20
2018-05-16T04:19:23.610Z,14.20
2018-05-16T04:21:53.920Z,14.10
2018-05-16T04:24:22.461Z,14.20
2018-05-16T04:26:50.480Z,14.20
2018-05-16T04:29:18.160Z,14.30
2018-05-16T04:31:48.051Z,14.30
2018-05-16T04:34:15.636Z,14.30
2018-05-16T04:36:44.231Z,14.50
2018-05-16T04:39:11.721Z,14.40
2018-05-16T04:41:40.450Z,14.50
2018-05-16T04:44:07.901Z,14.50
2018-05-16T04:46:36.370Z,14.60
2018-05-16T04:49:03.730Z,14.60
2018-05-16T04:51:31.150Z,14.60
2018-05-16T04:54:01.911Z,14.70
2018-05-16T04:56:29.391Z,14.70
2018-05-16T04:58:57.910Z,14.80
2018-05-16T05:01:26.151Z,14.60
2018-05-16T05:03:53.630Z,14.70
2018-05-16T05:06:21.029Z,14.60
2018-05-16T05:08:48.492Z,14.70
2018-05-16T05:11:17.151Z,14.80
2018-05-16T05:13:44.610Z,14.70
2018-05-16T05:16:11.830Z,14.70
2018-05-16T05:18:41.111Z,14.70
2018-05-16T05:21:08.704Z,14.70
2018-05-16T05:23:38.071Z,14.70
2018-05-16T05:26:06.500Z,14.70
2018-05-16T05:28:38.261Z,14.80
2018-05-16T05:31:08.720Z,14.70
2018-05-16T05:33:36.260Z,14.60
2018-05-16T05:36:03.819Z,14.70
2018-05-16T05:38:33.641Z,14.80
2018-05-16T05:41:01.122Z,14.80
2018-05-16T05:43:28.583Z,14.90
2018-05-16T05:45:56.161Z,14.70
2018-05-16T05:48:25.020Z,14.90
2018-05-16T05:50:52.329Z,14.90
2018-05-16T05:53:19.660Z,15.00
2018-05-16T05:55:49.369Z,15.10
2018-05-16T05:58:16.826Z,15.40
2018-05-16T06:00:44.107Z,15.40
2018-05-16T06:03:11.610Z,15.40
2018-05-16T06:05:38.940Z,15.30
2018-05-16T06:08:12.460Z,15.30
2018-05-16T06:10:41.559Z,15.20
2018-05-16T06:13:08.970Z,15.40
2018-05-16T06:15:36.249Z,15.30
2018-05-16T06:18:06.640Z,15.10
2018-05-16T06:20:33.973Z,15.10
2018-05-16T06:23:02.390Z,15.20
2018-05-16T06:25:29.741Z,15.20
2018-05-16T06:27:57.800Z,15.20
2018-05-16T06:30:25.421Z,15.40
2018-05-16T06:32:53.412Z,15.20
2018-05-16T06:35:21.481Z,15.50
2018-05-16T06:37:50.860Z,15.50
2018-05-16T06:40:19.940Z,15.70
2018-05-16T06:42:47.229Z,16.00
2018-05-16T06:45:17.241Z,16.00
2018-05-16T06:47:45.380Z,16.10
2018-05-16T06:50:12.790Z,16.20
2018-05-16T06:52:41.611Z,16.20
2018-05-16T06:55:12.230Z,16.40
2018-05-16T06:57:40.021Z,16.10
2018-05-16T07:00:08.412Z,16.00
2018-05-16T07:02:36.051Z,15.80
2018-05-16T07:05:03.430Z,15.80
2018-05-16T07:07:33.000Z,15.60
2018-05-16T07:10:04.044Z,15.30
2018-05-16T07:12:31.730Z,15.30
2018-05-16T07:14:59.173Z,15.60
2018-05-16T07:17:26.471Z,15.60
2018-05-16T07:19:53.939Z,15.70
2018-05-16T07:22:21.160Z,15.90
2018-05-16T07:24:48.842Z,16.00
2018-05-16T07:27:16.169Z,15.80
2018-05-16T07:29:43.990Z,15.90
2018-05-16T07:32:12.246Z,16.10
2018-05-16T07:34:40.701Z,16.10
2018-05-16T07:37:08.711Z,16.20
2018-05-16T07:39:36.511Z,16.20
2018-05-16T07:42:05.919Z,16.40
2018-05-16T07:44:33.310Z,16.30
2018-05-16T07:47:01.878Z,16.30
2018-05-16T07:49:32.800Z,16.30
2018-05-16T07:52:00.211Z,16.40
2018-05-16T07:54:28.591Z,16.30
2018-05-16T07:56:57.484Z,16.40
2018-05-16T07:59:26.610Z,16.40
2018-05-16T08:01:54.263Z,16.50
2018-05-16T08:04:23.512Z,16.90
2018-05-16T08:06:50.789Z,17.40
2018-05-16T08:09:20.921Z,17.80
2018-05-16T08:11:48.221Z,18.20
2018-05-16T08:14:17.319Z,18.00
2018-05-16T08:16:44.581Z,18.10
2018-05-16T08:19:12.843Z,18.30
2018-05-16T08:21:41.304Z,18.00
2018-05-16T08:24:08.931Z,18.10
2018-05-16T08:26:37.399Z,18.10
2018-05-16T08:29:04.980Z,18.10
2018-05-16T08:31:33.291Z,18.10
2018-05-16T08:34:00.510Z,18.30
2018-05-16T08:36:29.139Z,18.60
2018-05-16T08:38:56.940Z,18.60
2018-05-16T08:41:25.232Z,18.30
2018-05-16T08:43:53.313Z,18.40
2018-05-16T08:46:20.842Z,18.30
2018-05-16T08:48:50.000Z,18.30
2018-05-16T08:51:18.260Z,18.30
2018-05-16T08:53:46.540Z,18.00
2018-05-16T08:56:16.981Z,17.90
2018-05-16T08:58:44.691Z,17.70
2018-05-16T09:01:13.925Z,17.50
2018-05-16T09:03:42.142Z,17.20
2018-05-16T09:06:09.471Z,17.20
2018-05-16T09:08:37.670Z,17.20
2018-05-16T09:11:05.100Z,17.40
2018-05-16T09:13:33.540Z,17.30
2018-05-16T09:16:00.920Z,17.20
2018-05-16T09:18:29.871Z,17.40
2018-05-16T09:20:57.200Z,17.40
2018-05-16T09:23:26.391Z,17.60
2018-05-16T09:25:56.092Z,17.70
2018-05-16T09:28:23.545Z,17.80
2018-05-16T09:30:50.897Z,18.30
2018-05-16T09:33:19.661Z,18.30
2018-05-16T09:35:47.149Z,18.60
2018-05-16T09:38:14.720Z,18.30
2018-05-16T09:40:43.191Z,18.20
2018-05-16T09:43:10.582Z,18.40
2018-05-16T09:45:39.016Z,18.10
2018-05-16T09:48:06.310Z,18.40
2018-05-16T09:50:33.620Z,19.00
2018-05-16T09:53:04.230Z,19.20
2018-05-16T09:55:33.201Z,19.00
2018-05-16T09:58:00.651Z,18.80
2018-05-16T10:00:29.832Z,19.30
2018-05-16T10:02:57.261Z,19.40
2018-05-16T10:05:24.294Z,19.40
2018-05-16T10:07:51.800Z,19.00
2018-05-16T10:10:19.721Z,18.60
2018-05-16T10:12:47.920Z,19.10
2018-05-16T10:15:15.431Z,19.40
2018-05-16T10:17:42.943Z,19.60
2018-05-16T10:20:11.137Z,19.50
2018-05-16T10:22:38.581Z,19.40
2018-05-16T10:25:06.571Z,19.30
2018-05-16T10:27:34.060Z,19.00
2018-05-16T10:30:01.571Z,19.00
2018-05-16T10:32:29.061Z,19.00
2018-05-16T10:34:56.513Z,19.00
2018-05-16T10:37:24.092Z,19.00
2018-05-16T10:39:52.582Z,19.00
2018-05-16T10:42:20.191Z,19.10
2018-05-16T10:44:47.551Z,19.00
2018-05-16T10:47:14.932Z,19.10
2018-05-16T10:49:42.960Z,19.00
2018-05-16T10:52:10.495Z,19.20
2018-05-16T10:54:38.961Z,19.10
2018-05-16T10:57:09.392Z,19.00
2018-05-16T10:59:36.781Z,18.30
2018-05-16T11:02:04.332Z,17.90
2018-05-16T11:04:31.780Z,17.90
2018-05-16T11:06:59.800Z,18.00
2018-05-16T11:09:27.271Z,18.00
2018-05-16T11:11:55.602Z,18.00
2018-05-16T11:14:23.032Z,17.80
2018-05-16T11:16:51.501Z,17.70
2018-05-16T11:19:19.882Z,17.60
2018-05-16T11:21:47.392Z,17.70
2018-05-16T11:24:14.872Z,17.60
2018-05-16T11:26:42.811Z,17.50
2018-05-16T11:29:10.181Z,17.40
2018-05-16T11:31:37.810Z,17.20
2018-05-16T11:34:05.231Z,17.10
2018-05-16T11:36:33.913Z,17.20
2018-05-16T11:39:01.394Z,17.40
2018-05-16T11:41:29.060Z,17.40
2018-05-16T11:43:56.502Z,18.30
2018-05-16T11:46:24.481Z,18.60
2018-05-16T11:48:51.978Z,19.10
2018-05-16T11:51:19.381Z,19.10
2018-05-16T11:53:48.571Z,18.90
2018-05-16T11:56:16.511Z,18.60
2018-05-16T11:58:43.801Z,18.10
2018-05-16T12:01:11.290Z,17.90
2018-05-16T12:03:38.781Z,17.90
2018-05-16T12:06:08.191Z,17.50
2018-05-16T12:08:36.452Z,17.50
2018-05-16T12:11:04.011Z,17.50
2018-05-16T12:13:33.534Z,17.60
2018-05-16T12:16:02.553Z,17.60
2018-05-16T12:18:31.211Z,17.50
2018-05-16T12:21:00.552Z,17.40
2018-05-16T12:23:29.070Z,17.50
2018-05-16T12:25:56.482Z,17.70
2018-05-16T12:28:25.352Z,17.70
2018-05-16T12:30:52.692Z,17.70
2018-05-16T12:33:19.781Z,17.60
2018-05-16T12:35:47.385Z,17.60
2018-05-16T12:38:19.801Z,17.60
2018-05-16T12:40:50.412Z,17.70
2018-05-16T12:43:17.931Z,17.80
2018-05-16T12:45:45.260Z,17.40
2018-05-16T12:48:13.660Z,17.50
2018-05-16T12:50:41.011Z,17.30
2018-05-16T12:53:08.511Z,17.20
2018-05-16T12:55:35.928Z,17.40
2018-05-16T12:58:03.252Z,17.20
2018-05-16T13:00:32.172Z,17.20
2018-05-16T13:02:59.591Z,17.20
2018-05-16T13:05:28.810Z,16.90
2018-05-16T13:07:57.216Z,17.00
2018-05-16T13:10:24.697Z,16.70
2018-05-16T13:12:53.889Z,16.70
2018-05-16T13:15:21.340Z,16.70
2018-05-16T13:17:50.156Z,16.50
2018-05-16T13:20:17.461Z,16.50
2018-05-16T13:22:44.890Z,16.70
2018-05-16T13:25:13.230Z,16.90
2018-05-16T13:27:42.090Z,17.10
2018-05-16T13:30:09.381Z,17.00
2018-05-16T13:32:36.802Z,17.00
2018-05-16T13:35:06.431Z,17.20
2018-05-16T13:37:34.510Z,17.50
2018-05-16T13:40:02.734Z,17.50
2018-05-16T13:42:32.061Z,17.70
2018-05-16T13:44:59.891Z,17.90
2018-05-16T13:47:27.310Z,17.80
2018-05-16T13:49:55.000Z,18.00
2018-05-16T13:52:23.433Z,18.10
2018-05-16T13:54:51.059Z,17.90
2018-05-16T13:57:19.300Z,17.90
2018-05-16T13:59:46.870Z,18.10
2018-05-16T14:02:14.430Z,18.20
2018-05-16T14:04:41.919Z,18.10
2018-05-16T14:07:09.019Z,18.10
2018-05-16T14:09:36.586Z,18.00
2018-05-16T14:12:04.483Z,18.00
2018-05-16T14:14:32.190Z,18.10
2018-05-16T14:17:00.471Z,18.10
2018-05-16T14:19:28.070Z,17.90
2018-05-16T14:21:55.582Z,17.90
2018-05-16T14:24:23.840Z,18.00
2018-05-16T14:26:51.440Z,17.80
2018-05-16T14:29:18.891Z,17.80
2018-05-16T14:31:46.561Z,17.90
2018-05-16T14:34:14.121Z,17.80
2018-05-16T14:36:42.022Z,17.70
2018-05-16T14:39:09.540Z,17.50
2018-05-16T14:41:37.145Z,17.70
2018-05-16T14:44:05.289Z,17.60
2018-05-16T14:46:32.991Z,17.40
2018-05-16T14:49:00.480Z,17.50
2018-05-16T14:51:28.532Z,17.50
2018-05-16T14:53:56.035Z,17.50
2018-05-16T14:56:23.532Z,17.50
2018-05-16T14:58:51.129Z,17.70
2018-05-16T15:01:18.371Z,17.80
2018-05-16T15:03:46.141Z,18.00
2018-05-16T15:06:13.588Z,18.00
2018-05-16T15:08:41.221Z,18.20
2018-05-16T15:11:08.821Z,18.30
2018-05-16T15:13:37.230Z,18.00
2018-05-16T15:16:04.832Z,18.30
2018-05-16T15:18:36.010Z,18.40
2018-05-16T15:21:07.252Z,18.50
2018-05-16T15:23:36.551Z,18.60
2018-05-16T15:26:03.922Z,18.60
2018-05-16T15:28:31.332Z,18.30
2018-05-16T15:30:59.990Z,18.60
2018-05-16T15:33:27.880Z,18.40
2018-05-16T15:35:55.393Z,18.40
2018-05-16T15:38:23.056Z,18.20
2018-05-16T15:40:50.420Z,18.00
2018-05-16T15:43:17.773Z,17.80
2018-05-16T15:45:45.449Z,17.80
2018-05-16T15:48:12.673Z,17.60
2018-05-16T15:50:42.970Z,17.20
2018-05-16T15:53:11.780Z,17.10
2018-05-16T15:55:41.920Z,17.10
2018-05-16T15:58:12.941Z,17.20
2018-05-16T16:00:40.341Z,17.30
2018-05-16T16:03:08.230Z,17.30
2018-05-16T16:05:36.771Z,17.40
2018-05-16T16:08:05.189Z,17.50
2018-05-16T16:10:32.701Z,17.60
2018-05-16T16:13:00.630Z,17.60
2018-05-16T16:15:28.942Z,17.50
2018-05-16T16:17:56.440Z,17.30
2018-05-16T16:20:24.455Z,17.30
2018-05-16T16:22:51.791Z,17.20
2018-05-16T16:25:19.644Z,17.20
2018-05-16T16:27:47.932Z,17.10
2018-05-16T16:30:15.411Z,17.20
2018-05-16T16:32:42.790Z,17.20
2018-05-16T16:35:11.062Z,17.40
2018-05-16T16:37:38.661Z,17.30
2018-05-16T16:40:07.002Z,16.70
2018-05-16T16:42:34.311Z,16.70
2018-05-16T16:45:01.900Z,16.30
2018-05-16T16:47:29.361Z,16.40
2018-05-16T16:49:57.120Z,16.30
2018-05-16T16:52:25.331Z,16.40
2018-05-16T16:54:53.652Z,16.20
2018-05-16T16:57:22.740Z,16.00
2018-05-16T16:59:51.129Z,16.00
2018-05-16T17:02:18.632Z,15.80
2018-05-16T17:04:46.265Z,15.80
2018-05-16T17:07:13.871Z,15.90
2018-05-16T17:09:42.121Z,15.90
2018-05-16T17:12:09.831Z,15.80
2018-05-16T17:14:38.271Z,15.90
2018-05-16T17:17:05.621Z,15.90
2018-05-16T17:19:34.784Z,16.00
2018-05-16T17:22:02.291Z,15.90
2018-05-16T17:24:30.911Z,15.80
2018-05-16T17:27:00.208Z,15.90
2018-05-16T17:29:27.990Z,15.90
2018-05-16T17:31:56.150Z,16.00
2018-05-16T17:34:23.570Z,15.70
2018-05-16T17:36:51.631Z,15.60
2018-05-16T17:39:19.163Z,15.40
2018-05-16T17:41:47.802Z,15.50
2018-05-16T17:44:15.192Z,15.50
2018-05-16T17:46:44.040Z,15.70
2018-05-16T17:49:11.530Z,15.50
2018-05-16T17:51:40.120Z,15.60
2018-05-16T17:54:08.970Z,15.60
2018-05-16T17:56:40.342Z,15.50
2018-05-16T17:59:08.472Z,15.50
2018-05-16T18:01:36.012Z,15.40
2018-05-16T18:04:03.631Z,15.50
2018-05-16T18:06:31.287Z,15.60
2018-05-16T18:08:58.802Z,15.60
2018-05-16T18:11:26.584Z,15.60
2018-05-16T18:14:12.014Z,15.60
2018-05-16T18:16:57.451Z,15.60
2018-05-16T18:19:25.338Z,15.60
2018-05-16T18:21:53.320Z,15.50
2018-05-16T18:24:20.860Z,15.50
2018-05-16T18:26:48.434Z,15.50
2018-05-16T18:29:16.101Z,15.40
2018-05-16T18:31:43.491Z,15.40
2018-05-16T18:34:11.266Z,15.30
2018-05-16T18:36:39.573Z,15.40
2018-05-16T18:39:07.069Z,15.30
2018-05-16T18:41:34.390Z,15.30
2018-05-16T18:44:01.880Z,15.30
2018-05-16T18:46:29.570Z,15.10
2018-05-16T18:48:56.899Z,15.20
2018-05-16T18:51:24.250Z,15.10
2018-05-16T18:53:51.820Z,15.10
2018-05-16T18:56:19.345Z,15.20
2018-05-16T18:58:47.121Z,15.30
2018-05-16T19:01:14.421Z,15.40
2018-05-16T19:03:41.900Z,15.30
2018-05-16T19:06:09.431Z,15.30
2018-05-16T19:08:39.169Z,15.30
2018-05-16T19:11:06.624Z,15.20
2018-05-16T19:13:33.952Z,15.10
2018-05-16T19:16:02.051Z,15.10
2018-05-16T19:18:29.901Z,15.20
2018-05-16T19:20:58.191Z,15.20
2018-05-16T19:23:25.773Z,15.20
2018-05-16T19:25:53.260Z,15.10
2018-05-16T19:28:21.150Z,15.10
2018-05-16T19:30:49.480Z,15.20
2018-05-16T19:33:17.360Z,15.20
2018-05-16T19:35:44.776Z,15.20
2018-05-16T19:38:12.629Z,15.10
2018-05-16T19:40:41.237Z,15.20
2018-05-16T19:43:09.199Z,15.20
2018-05-16T19:45:36.721Z,15.20
2018-05-16T19:48:04.030Z,15.20
2018-05-16T19:50:33.371Z,15.20
2018-05-16T19:53:01.293Z,15.20
2018-05-16T19:55:29.050Z,15.30
2018-05-16T19:57:56.600Z,15.30
2018-05-16T20:00:24.270Z,15.30
2018-05-16T20:02:51.661Z,15.40
2018-05-16T20:05:22.130Z,15.40
2018-05-16T20:07:50.590Z,15.50
2018-05-16T20:10:18.570Z,15.40
2018-05-16T20:12:46.071Z,15.40
2018-05-16T20:15:15.000Z,15.40
2018-05-16T20:17:42.730Z,15.30
2018-05-16T20:20:12.691Z,15.30
2018-05-16T20:22:42.201Z,15.20
2018-05-16T20:25:09.551Z,15.20
2018-05-16T20:27:38.520Z,15.20
2018-05-16T20:30:05.967Z,15.20
2018-05-16T20:32:36.340Z,15.30
2018-05-16T20:35:04.120Z,15.30
2018-05-16T20:37:31.509Z,15.30
2018-05-16T20:39:59.185Z,15.20
2018-05-16T20:42:26.580Z,15.20
2018-05-16T20:44:54.292Z,15.20
2018-05-16T20:47:21.770Z,15.20
2018-05-16T20:49:50.810Z,15.20
2018-05-16T20:52:18.159Z,15.30
2018-05-16T20:54:46.649Z,15.40
2018-05-16T20:57:15.900Z,15.30
2018-05-16T20:59:44.100Z,15.40
2018-05-16T21:02:13.109Z,15.50
2018-05-16T21:04:41.600Z,15.40
2018-05-16T21:07:09.003Z,15.40
2018-05-16T21:09:38.701Z,15.30
2018-05-16T21:12:05.980Z,15.30
2018-05-16T21:14:36.211Z,15.40
2018-05-16T21:17:04.590Z,15.40
2018-05-16T21:19:33.110Z,15.30
2018-05-16T21:22:00.401Z,15.40
2018-05-16T21:24:27.901Z,15.40
2018-05-16T21:26:55.190Z,15.40
2018-05-16T21:29:22.770Z,15.30
2018-05-16T21:31:51.261Z,15.40
2018-05-16T21:34:19.250Z,15.40
2018-05-16T21:36:46.731Z,15.40
2018-05-16T21:39:15.861Z,15.30
2018-05-16T21:41:46.512Z,15.30
2018-05-16T21:44:15.819Z,15.40
2018-05-16T21:46:43.970Z,15.30
2018-05-16T21:49:11.540Z,15.30
2018-05-16T21:51:39.094Z,15.30
2018-05-16T21:54:06.373Z,15.40
2018-05-16T21:56:34.591Z,15.30
2018-05-16T21:59:02.121Z,15.30
2018-05-16T22:01:30.771Z,15.30
2018-05-16T22:03:58.937Z,15.40
2018-05-16T22:06:26.510Z,15.20
2018-05-16T22:08:54.651Z,15.30
2018-05-16T22:11:22.051Z,15.20
2018-05-16T22:13:50.500Z,15.30
2018-05-16T22:16:17.942Z,15.30
2018-05-16T22:18:45.241Z,15.30
2018-05-16T22:21:12.591Z,15.30
2018-05-16T22:23:40.622Z,15.30
2018-05-16T22:26:10.941Z,15.40
2018-05-16T22:28:38.191Z,15.30
2018-05-16T22:31:14.402Z,15.30
2018-05-16T22:33:49.081Z,15.30
2018-05-16T22:36:22.702Z,15.20
2018-05-16T22:38:58.771Z,15.20
2018-05-16T22:41:32.151Z,15.10
2018-05-16T22:47:05.962Z,15.10
2018-05-16T22:49:33.261Z,14.90
2018-05-16T22:52:01.072Z,15.00
2018-05-16T22:54:28.371Z,15.00
2018-05-16T22:56:55.462Z,15.00
2018-05-16T22:59:23.515Z,14.90
2018-05-16T23:01:51.797Z,14.90
2018-05-16T23:04:20.452Z,14.90
2018-05-16T23:06:47.842Z,14.80
2018-05-16T23:09:15.951Z,14.90
2018-05-16T23:11:43.592Z,14.90
2018-05-16T23:14:12.557Z,15.00
2018-05-16T23:16:40.651Z,14.90
2018-05-16T23:19:08.801Z,15.00
2018-05-16T23:21:36.912Z,14.90
2018-05-16T23:24:04.271Z,14.90
2018-05-16T23:26:31.701Z,14.90
2018-05-16T23:29:00.131Z,14.90
2018-05-16T23:31:27.541Z,15.00
2018-05-16T23:33:55.920Z,15.00
2018-05-16T23:36:26.021Z,15.00
2018-05-16T23:38:54.472Z,14.90
2018-05-16T23:41:22.931Z,14.90
2018-05-16T23:43:50.220Z,14.90
2018-05-16T23:46:17.663Z,14.80
2018-05-16T23:48:45.015Z,14.80
2018-05-16T23:51:12.380Z,14.80
2018-05-16T23:53:40.742Z,14.80
2018-05-16T23:56:08.391Z,14.80
2018-05-16T23:58:36.531Z,14.80
